Time;durP1;ratioP1;P1;durP2;ratioP2;P2;SDS_P1;SDS_P2;PMS_P1;PMS_P2;Temp;Humidity;BMP_temperature;BMP_pressure;BME280_temperature;BME280_humidity;BME280_pressure;Samples;Min_cycle;Max_cycle;Signal;HPM_P1;HPM_P2
2022/08/05 00:00:30;;;;;;;13.13;4.90;;;24.60;99.90;;;;;;5082343;28;20362;-71
2022/08/05 00:02:56;;;;;;;8.73;4.55;;;24.60;99.90;;;;;;5077476;28;20028;-71
2022/08/05 00:05:22;;;;;;;7.90;4.57;;;24.60;99.90;;;;;;5079182;28;20025;-70
2022/08/05 00:07:48;;;;;;;9.98;4.18;;;24.50;99.90;;;;;;5086408;28;20013;-70
2022/08/05 00:10:14;;;;;;;6.22;4.18;;;24.50;99.90;;;;;;5077342;28;20202;-70
2022/08/05 00:12:40;;;;;;;11.60;4.70;;;24.50;99.90;;;;;;5078344;28;20027;-70
2022/08/05 00:15:06;;;;;;;7.07;4.57;;;24.50;99.90;;;;;;5080052;28;20043;-70
2022/08/05 00:17:32;;;;;;;17.23;5.50;;;24.40;99.90;;;;;;5083082;28;20135;-70
2022/08/05 00:19:58;;;;;;;8.32;4.07;;;24.40;99.90;;;;;;5086456;28;20055;-71
2022/08/05 00:22:24;;;;;;;8.30;4.72;;;24.40;99.90;;;;;;5079576;28;20040;-70
2022/08/05 00:24:50;;;;;;;11.40;4.68;;;24.40;99.90;;;;;;5081061;28;20834;-71
2022/08/05 00:27:15;;;;;;;9.57;5.00;;;24.40;99.90;;;;;;5083185;28;20024;-70
2022/08/05 00:29:41;;;;;;;9.05;4.15;;;24.40;99.90;;;;;;5077030;28;20057;-70
2022/08/05 00:32:11;;;;;;;11.40;5.00;;;24.30;99.90;;;;;;5077979;28;20401;-70
2022/08/05 00:34:41;;;;;;;8.23;4.88;;;24.30;99.90;;;;;;5077309;28;20024;-71
2022/08/05 00:37:06;;;;;;;11.95;4.50;;;24.30;99.90;;;;;;5088193;28;20028;-71
2022/08/05 00:39:32;;;;;;;12.23;4.95;;;24.30;99.90;;;;;;5079262;28;20029;-71
2022/08/05 00:41:58;;;;;;;8.73;4.47;;;24.30;99.90;;;;;;5079048;28;20416;-70
2022/08/05 00:44:24;;;;;;;11.98;5.57;;;24.30;99.90;;;;;;5076456;28;20046;-70
2022/08/05 00:46:49;;;;;;;5.93;4.13;;;24.30;99.90;;;;;;5083742;28;20024;-70
2022/08/05 00:49:18;;;;;;;12.98;4.50;;;24.30;99.90;;;;;;5080777;28;20021;-71
2022/08/05 00:51:45;;;;;;;10.77;4.85;;;24.20;99.90;;;;;;5080155;28;20460;-70
2022/08/05 00:54:12;;;;;;;7.68;4.47;;;24.20;99.90;;;;;;5080190;28;20048;-70
2022/08/05 00:56:38;;;;;;;9.80;5.32;;;24.20;99.90;;;;;;5076111;28;20028;-70
2022/08/05 00:59:05;;;;;;;9.73;3.95;;;24.20;99.90;;;;;;5076206;28;20040;-70
2022/08/05 01:01:31;;;;;;;7.95;4.60;;;24.20;99.90;;;;;;5074543;28;20035;-70
2022/08/05 01:03:56;;;;;;;11.65;4.55;;;24.10;99.90;;;;;;5075860;28;20044;-70
2022/08/05 01:06:22;;;;;;;11.70;5.70;;;24.10;99.90;;;;;;5076183;28;20039;-70
2022/08/05 01:08:48;;;;;;;12.40;4.97;;;24.10;99.90;;;;;;5076650;28;20488;-71
2022/08/05 01:11:21;;;;;;;8.20;5.55;;;24.10;99.90;;;;;;5075271;28;20038;-70
2022/08/05 01:13:56;;;;;;;10.32;4.45;;;24.10;99.90;;;;;;5079254;28;20017;-70
2022/08/05 01:16:47;;;;;;;9.27;4.53;;;24.10;99.90;;;;;;5090340;28;20064;-70
2022/08/05 01:19:25;;;;;;;8.45;4.57;;;24.00;99.90;;;;;;5088091;28;20109;-70
2022/08/05 01:22:16;;;;;;;9.65;4.55;;;24.00;99.90;;;;;;5075183;28;20028;-69
2022/08/05 01:25:01;;;;;;;9.57;4.55;;;24.00;99.90;;;;;;5085174;28;21242;-69
2022/08/05 01:27:59;;;;;;;12.82;4.78;;;24.00;99.90;;;;;;5076665;28;20050;-69
2022/08/05 01:30:30;;;;;;;11.40;5.18;;;23.90;99.90;;;;;;5082681;28;20081;-69
2022/08/05 01:32:57;;;;;;;8.10;5.10;;;23.90;99.90;;;;;;5074250;28;20024;-69
2022/08/05 01:35:27;;;;;;;11.88;5.53;;;23.90;99.90;;;;;;5075571;28;20028;-69
2022/08/05 01:37:56;;;;;;;10.13;4.90;;;23.80;99.90;;;;;;5075534;28;20028;-70
2022/08/05 01:40:27;;;;;;;14.88;4.90;;;23.70;99.90;;;;;;5077430;28;20029;-69
2022/08/05 01:42:55;;;;;;;10.02;5.25;;;23.70;99.90;;;;;;5080529;28;20097;-69
2022/08/05 01:45:23;;;;;;;7.20;4.80;;;23.70;99.90;;;;;;5075491;28;20032;-69
2022/08/05 01:47:52;;;;;;;15.05;5.40;;;23.60;99.90;;;;;;5077934;28;20048;-70
2022/08/05 01:50:25;;;;;;;10.95;5.00;;;23.60;99.90;;;;;;5079083;28;20031;-70
2022/08/05 01:52:53;;;;;;;11.77;4.68;;;23.50;99.90;;;;;;5078372;28;20035;-70
2022/08/05 01:55:22;;;;;;;7.88;4.28;;;23.50;99.90;;;;;;5074748;28;20020;-70
2022/08/05 01:57:51;;;;;;;7.00;4.32;;;23.40;99.90;;;;;;5077062;28;20029;-70
2022/08/05 02:00:17;;;;;;;9.65;4.45;;;23.40;99.90;;;;;;5080545;28;20031;-70
2022/08/05 02:02:54;;;;;;;7.95;4.30;;;23.40;99.90;;;;;;5077647;28;20020;-69
2022/08/05 02:05:21;;;;;;;9.07;3.78;;;23.30;99.90;;;;;;5103995;28;20033;-70
2022/08/05 02:07:47;;;;;;;7.03;3.67;;;23.20;99.90;;;;;;5081917;28;20059;-70
2022/08/05 02:10:13;;;;;;;6.70;3.50;;;23.10;99.90;;;;;;5086819;28;20058;-69
2022/08/05 02:12:45;;;;;;;5.85;3.00;;;23.00;99.90;;;;;;5079358;28;20016;-69
2022/08/05 02:15:34;;;;;;;9.52;3.72;;;23.00;99.90;;;;;;5090813;28;20032;-69
2022/08/05 02:18:09;;;;;;;6.88;3.75;;;22.90;99.90;;;;;;5082746;28;20021;-70
2022/08/05 02:20:59;;;;;;;11.77;3.67;;;22.80;99.90;;;;;;5089040;28;20409;-69
2022/08/05 02:23:30;;;;;;;7.10;3.63;;;22.80;99.90;;;;;;5076688;28;20036;-69
2022/08/05 02:25:59;;;;;;;5.90;3.30;;;22.80;99.90;;;;;;5076690;28;20092;-69
2022/08/05 02:28:28;;;;;;;7.88;3.70;;;22.70;99.90;;;;;;5083740;28;20020;-70
2022/08/05 02:31:20;;;;;;;7.13;3.55;;;22.60;99.90;;;;;;5078220;28;20024;-70
2022/08/05 02:33:53;;;;;;;9.88;3.95;;;22.60;99.90;;;;;;5075842;28;20032;-70
2022/08/05 02:36:22;;;;;;;7.75;3.55;;;22.50;99.90;;;;;;5078523;28;20028;-69
2022/08/05 02:38:49;;;;;;;5.47;3.33;;;22.50;99.90;;;;;;5077512;28;20021;-69
2022/08/05 02:41:17;;;;;;;6.97;3.65;;;22.40;99.90;;;;;;5078717;28;20081;-70
2022/08/05 02:43:44;;;;;;;4.88;3.33;;;22.40;99.90;;;;;;5082427;28;20020;-70
2022/08/05 02:46:14;;;;;;;7.50;3.72;;;22.40;99.90;;;;;;5079062;28;20037;-70
2022/08/05 02:48:40;;;;;;;8.63;4.88;;;22.30;99.90;;;;;;5077592;28;20024;-70
2022/08/05 02:51:08;;;;;;;6.95;3.55;;;22.30;99.90;;;;;;5079691;28;20146;-69
2022/08/05 02:53:36;;;;;;;9.05;3.50;;;22.30;99.90;;;;;;5077626;28;20044;-70
2022/08/05 02:56:03;;;;;;;6.10;3.70;;;22.30;99.90;;;;;;5079953;28;20100;-70
2022/08/05 02:58:31;;;;;;;6.68;4.03;;;22.30;99.90;;;;;;5081344;28;20044;-69
2022/08/05 03:01:00;;;;;;;8.75;3.78;;;22.20;99.90;;;;;;5077518;28;20436;-70
2022/08/05 03:03:29;;;;;;;7.60;3.43;;;22.20;99.90;;;;;;5080006;28;20067;-69
2022/08/05 03:05:56;;;;;;;5.07;3.60;;;22.20;99.90;;;;;;5078165;28;20356;-70
2022/08/05 03:08:23;;;;;;;7.72;3.90;;;22.10;99.90;;;;;;5078918;28;20029;-69
2022/08/05 03:10:49;;;;;;;10.15;3.78;;;22.10;99.90;;;;;;5080527;28;20056;-70
2022/08/05 03:13:16;;;;;;;10.63;4.88;;;22.10;99.90;;;;;;5095825;28;20020;-70
2022/08/05 03:15:46;;;;;;;7.88;3.80;;;22.10;99.90;;;;;;5092643;28;20404;-70
2022/08/05 03:18:13;;;;;;;8.07;5.07;;;22.00;99.90;;;;;;5079425;28;20150;-70
2022/08/05 03:20:39;;;;;;;11.63;4.65;;;22.00;99.90;;;;;;5096870;28;20036;-69
2022/08/05 03:23:08;;;;;;;9.50;4.03;;;21.90;99.90;;;;;;5079175;28;20056;-69
2022/08/05 03:25:36;;;;;;;10.27;3.92;;;21.90;99.90;;;;;;5088839;28;20024;-69
2022/08/05 03:28:04;;;;;;;7.53;3.88;;;21.90;99.90;;;;;;5078492;28;20031;-69
2022/08/05 03:30:33;;;;;;;10.73;4.93;;;21.80;99.90;;;;;;5083598;28;20430;-70
2022/08/05 03:33:01;;;;;;;9.00;4.82;;;21.80;99.90;;;;;;5077584;28;20046;-70
2022/08/05 03:35:28;;;;;;;8.23;5.50;;;21.80;99.90;;;;;;5079099;28;20028;-69
2022/08/05 03:38:00;;;;;;;8.15;5.45;;;21.80;99.90;;;;;;5084389;28;20370;-70
2022/08/05 03:40:26;;;;;;;10.45;5.32;;;21.70;99.90;;;;;;5077488;28;20024;-69
2022/08/05 03:42:52;;;;;;;10.40;5.75;;;21.70;99.90;;;;;;5078511;28;20032;-70
2022/08/05 03:45:18;;;;;;;9.30;5.88;;;21.70;99.90;;;;;;5082936;28;20036;-69
2022/08/05 03:47:43;;;;;;;12.25;5.55;;;21.70;99.90;;;;;;5082851;28;20029;-70
2022/08/05 03:50:09;;;;;;;11.57;6.00;;;21.60;99.90;;;;;;5081585;28;20028;-69
2022/08/05 03:53:04;;;;;;;11.20;5.65;;;21.60;99.90;;;;;;5079494;28;20020;-69
2022/08/05 03:55:36;;;;;;;10.00;5.68;;;21.70;99.90;;;;;;5069383;28;20032;-70
2022/08/05 03:58:04;;;;;;;11.27;6.60;;;21.70;99.90;;;;;;5077067;28;20108;-70
2022/08/05 04:00:31;;;;;;;11.05;5.90;;;21.70;99.90;;;;;;5084931;28;20073;-70
2022/08/05 04:03:03;;;;;;;11.35;6.47;;;21.70;99.90;;;;;;5091476;28;20051;-69
2022/08/05 04:05:32;;;;;;;16.83;7.20;;;21.70;99.90;;;;;;5091485;28;20042;-70
2022/08/05 04:08:04;;;;;;;10.65;6.50;;;21.70;99.90;;;;;;5080245;28;20089;-70
2022/08/05 04:10:30;;;;;;;14.45;9.05;;;21.70;99.90;;;;;;5077293;28;20028;-70
2022/08/05 04:12:56;;;;;;;11.25;6.55;;;21.60;99.90;;;;;;5083157;28;20035;-70
2022/08/05 04:15:22;;;;;;;16.50;6.82;;;21.60;99.90;;;;;;5076810;28;20435;-70
2022/08/05 04:17:48;;;;;;;14.00;6.55;;;21.60;99.90;;;;;;5082402;28;20029;-69
2022/08/05 04:20:19;;;;;;;12.52;6.85;;;21.60;99.90;;;;;;5091377;28;20056;-70
2022/08/05 04:22:45;;;;;;;14.85;7.05;;;21.60;99.90;;;;;;5078349;28;20044;-70
2022/08/05 04:25:11;;;;;;;9.88;6.20;;;21.60;99.90;;;;;;5077811;28;20108;-70
2022/08/05 04:27:38;;;;;;;12.48;6.60;;;21.60;99.90;;;;;;5079881;28;20041;-70
2022/08/05 04:30:05;;;;;;;17.20;8.30;;;21.60;99.90;;;;;;5076144;28;20013;-69
2022/08/05 04:32:30;;;;;;;12.73;7.47;;;21.60;99.90;;;;;;5095765;28;20032;-70
2022/08/05 04:34:56;;;;;;;11.23;7.07;;;21.60;99.90;;;;;;5092296;28;20019;-70
2022/08/05 04:37:22;;;;;;;11.00;7.18;;;21.60;99.90;;;;;;5082746;28;20054;-70
2022/08/05 04:39:48;;;;;;;10.48;6.80;;;21.60;99.90;;;;;;5076456;28;20039;-69
2022/08/05 04:42:14;;;;;;;9.93;6.65;;;21.60;99.90;;;;;;5075482;28;20036;-70
2022/08/05 04:44:40;;;;;;;12.18;6.35;;;21.60;99.90;;;;;;5077018;28;20531;-70
2022/08/05 04:47:06;;;;;;;9.90;7.40;;;21.50;99.90;;;;;;5077479;28;20067;-68
2022/08/05 04:49:32;;;;;;;9.82;6.88;;;21.60;99.90;;;;;;5081736;28;20104;-70
2022/08/05 04:51:58;;;;;;;8.98;6.65;;;21.60;99.90;;;;;;5082702;28;20055;-70
2022/08/05 04:54:26;;;;;;;12.48;7.30;;;21.60;99.90;;;;;;5080969;28;20045;-69
2022/08/05 04:56:53;;;;;;;12.95;6.95;;;21.60;99.90;;;;;;5078386;28;20086;-70
2022/08/05 04:59:21;;;;;;;12.02;6.55;;;21.60;99.90;;;;;;5087515;28;20021;-69
2022/08/05 05:01:50;;;;;;;11.52;7.15;;;21.70;99.90;;;;;;5076580;28;20484;-70
2022/08/05 05:04:16;;;;;;;10.40;6.13;;;21.70;99.90;;;;;;5083645;28;20016;-70
2022/08/05 05:06:42;;;;;;;13.27;7.63;;;21.80;99.90;;;;;;5076332;28;20516;-70
2022/08/05 05:09:12;;;;;;;14.95;7.40;;;21.80;99.90;;;;;;5079800;28;20028;-70
2022/08/05 05:11:38;;;;;;;12.60;6.10;;;21.90;99.90;;;;;;5076132;28;20024;-70
2022/08/05 05:14:05;;;;;;;14.25;7.15;;;21.90;99.90;;;;;;5080813;28;20066;-70
2022/08/05 05:16:31;;;;;;;15.23;6.88;;;21.90;99.90;;;;;;5080383;28;20081;-70
2022/08/05 05:18:57;;;;;;;13.15;6.30;;;22.00;99.90;;;;;;5088295;28;20024;-69
2022/08/05 05:21:23;;;;;;;9.23;6.68;;;22.00;99.90;;;;;;5075930;28;20032;-70
2022/08/05 05:23:49;;;;;;;14.13;7.40;;;22.00;99.90;;;;;;5080434;28;20024;-70
2022/08/05 05:26:15;;;;;;;12.45;6.18;;;22.10;99.90;;;;;;5076698;28;20133;-70
2022/08/05 05:28:40;;;;;;;13.75;7.10;;;22.10;99.90;;;;;;5078739;28;20028;-70
2022/08/05 05:31:06;;;;;;;12.80;6.32;;;22.20;99.90;;;;;;5076530;28;20021;-70
2022/08/05 05:33:32;;;;;;;11.48;6.80;;;22.30;99.90;;;;;;5080914;28;20093;-70
2022/08/05 05:35:58;;;;;;;10.93;6.43;;;22.20;99.90;;;;;;5087606;28;20028;-69
2022/08/05 05:38:23;;;;;;;10.98;5.57;;;22.40;99.90;;;;;;5077019;28;20411;-70
2022/08/05 05:40:49;;;;;;;12.82;6.38;;;22.40;99.90;;;;;;5077662;28;20103;-69
2022/08/05 05:43:15;;;;;;;13.90;5.90;;;22.30;99.90;;;;;;5075991;28;20029;-70
2022/08/05 05:45:41;;;;;;;9.77;5.53;;;22.40;99.90;;;;;;5092039;28;20085;-70
2022/08/05 05:48:07;;;;;;;13.73;5.75;;;22.40;99.90;;;;;;5076362;28;20505;-70
2022/08/05 05:50:34;;;;;;;11.65;7.47;;;22.50;99.90;;;;;;5096353;28;20024;-70
2022/08/05 05:53:00;;;;;;;14.27;6.45;;;22.50;99.90;;;;;;5091836;28;20056;-70
2022/08/05 05:55:26;;;;;;;10.52;5.53;;;22.60;99.90;;;;;;5077463;28;20028;-70
2022/08/05 05:57:52;;;;;;;10.82;5.97;;;22.60;99.90;;;;;;5085809;28;20451;-70
2022/08/05 06:00:19;;;;;;;11.07;5.30;;;22.80;99.90;;;;;;5077552;28;20028;-70
2022/08/05 06:02:46;;;;;;;11.95;5.95;;;22.90;99.90;;;;;;5078448;28;20024;-70
2022/08/05 06:05:14;;;;;;;31.95;12.55;;;22.90;99.90;;;;;;5077866;28;20032;-70
2022/08/05 06:07:41;;;;;;;18.70;7.43;;;23.00;99.90;;;;;;5092918;28;20024;-70
2022/08/05 06:10:08;;;;;;;12.45;6.88;;;23.10;99.90;;;;;;5092397;28;20452;-70
2022/08/05 06:12:35;;;;;;;11.25;5.10;;;23.10;99.90;;;;;;5078840;28;20023;-70
2022/08/05 06:15:02;;;;;;;6.07;4.82;;;23.20;99.90;;;;;;5081815;28;20043;-70
2022/08/05 06:17:28;;;;;;;9.57;5.10;;;23.20;99.90;;;;;;5085962;28;20043;-70
2022/08/05 06:19:54;;;;;;;10.60;4.30;;;23.20;99.90;;;;;;5087379;28;20025;-70
2022/08/05 06:22:25;;;;;;;11.18;5.40;;;23.20;99.90;;;;;;5080122;28;20032;-69
2022/08/05 06:24:51;;;;;;;9.57;5.18;;;23.20;99.90;;;;;;5080801;28;20496;-70
2022/08/05 06:27:17;;;;;;;20.92;9.73;;;23.20;99.90;;;;;;5086924;28;20032;-70
2022/08/05 06:29:43;;;;;;;20.27;8.88;;;23.10;99.90;;;;;;5085066;28;20048;-70
2022/08/05 06:32:10;;;;;;;21.40;10.10;;;23.20;99.90;;;;;;5081125;28;20027;-70
2022/08/05 06:34:36;;;;;;;11.25;5.13;;;23.10;99.90;;;;;;5084195;28;20024;-70
2022/08/05 06:37:02;;;;;;;23.00;8.85;;;23.20;99.90;;;;;;5080649;28;20384;-70
2022/08/05 06:39:28;;;;;;;14.50;5.82;;;23.20;99.90;;;;;;5080398;28;20082;-70
2022/08/05 06:41:57;;;;;;;14.15;5.75;;;23.20;99.90;;;;;;5089493;28;20032;-70
2022/08/05 06:44:23;;;;;;;9.88;5.63;;;23.30;99.90;;;;;;5098769;28;20107;-70
2022/08/05 06:46:49;;;;;;;12.70;6.13;;;23.30;99.90;;;;;;5088375;28;20102;-69
2022/08/05 06:49:15;;;;;;;10.35;5.13;;;23.30;99.90;;;;;;5082389;28;20029;-70
2022/08/05 06:51:40;;;;;;;10.30;4.38;;;23.40;99.90;;;;;;5081875;28;20099;-70
2022/08/05 06:54:06;;;;;;;8.65;4.90;;;23.40;99.90;;;;;;5080992;28;20048;-70
2022/08/05 06:56:32;;;;;;;10.10;5.43;;;23.50;99.90;;;;;;5091937;28;20025;-71
2022/08/05 06:58:58;;;;;;;13.25;5.25;;;23.50;99.90;;;;;;5081198;28;20062;-72
2022/08/05 07:01:25;;;;;;;9.38;4.75;;;23.60;99.90;;;;;;5085829;28;20128;-72
2022/08/05 07:03:51;;;;;;;21.20;6.53;;;23.60;99.90;;;;;;5089058;28;20024;-72
2022/08/05 07:06:17;;;;;;;8.82;4.38;;;23.60;99.90;;;;;;5090188;28;20039;-72
2022/08/05 07:08:43;;;;;;;10.18;4.90;;;23.60;99.90;;;;;;5094495;28;20413;-72
2022/08/05 07:11:10;;;;;;;11.57;5.22;;;23.60;99.90;;;;;;5079327;28;20029;-72
2022/08/05 07:19:04;;;;;;;23.25;7.13;;;23.60;99.90;;;;;;5077570;28;20109;-72
2022/08/05 07:21:30;;;;;;;9.65;5.18;;;23.50;99.90;;;;;;5078455;28;20025;-72
2022/08/05 07:23:56;;;;;;;15.43;6.55;;;23.50;99.90;;;;;;5084534;28;20028;-72
2022/08/05 07:26:22;;;;;;;10.90;5.50;;;23.50;99.90;;;;;;5080266;28;20052;-72
2022/08/05 07:28:51;;;;;;;11.70;4.95;;;23.60;99.90;;;;;;5079623;28;20079;-72
2022/08/05 07:31:17;;;;;;;15.57;6.18;;;23.60;99.90;;;;;;5079678;28;20021;-71
2022/08/05 07:33:43;;;;;;;9.40;5.60;;;23.50;99.90;;;;;;5078942;28;20048;-72
2022/08/05 07:36:09;;;;;;;14.30;5.13;;;23.50;99.90;;;;;;5078991;28;20044;-72
2022/08/05 07:38:36;;;;;;;17.35;8.55;;;23.50;99.90;;;;;;5082821;28;20100;-73
2022/08/05 07:41:07;;;;;;;11.27;5.60;;;23.60;99.90;;;;;;5080017;28;20064;-73
2022/08/05 07:43:33;;;;;;;15.75;5.88;;;23.70;99.90;;;;;;5078118;28;20035;-72
2022/08/05 07:45:59;;;;;;;13.27;6.68;;;23.70;99.90;;;;;;5079547;28;20029;-72
2022/08/05 07:48:25;;;;;;;11.30;6.13;;;23.80;99.90;;;;;;5082607;28;20521;-72
2022/08/05 07:50:51;;;;;;;11.02;6.10;;;23.90;99.90;;;;;;5081842;28;20119;-72
2022/08/05 07:53:17;;;;;;;13.48;6.93;;;24.00;99.90;;;;;;5088372;28;20055;-73
2022/08/05 07:55:43;;;;;;;9.80;6.03;;;24.00;99.90;;;;;;5095558;28;20102;-73
2022/08/05 07:58:08;;;;;;;9.48;6.32;;;24.00;99.90;;;;;;5085568;28;20039;-73
2022/08/05 08:00:34;;;;;;;12.02;6.63;;;24.10;99.90;;;;;;5078589;28;20025;-74
2022/08/05 08:03:00;;;;;;;16.27;7.20;;;24.00;99.90;;;;;;5083550;28;20053;-73
2022/08/05 08:05:26;;;;;;;10.05;5.47;;;24.10;99.90;;;;;;5081859;28;20015;-73
2022/08/05 08:07:54;;;;;;;17.02;6.72;;;23.90;99.90;;;;;;5088154;28;20111;-71
2022/08/05 08:10:21;;;;;;;14.63;6.88;;;23.90;99.90;;;;;;5083566;28;20005;-71
2022/08/05 08:12:47;;;;;;;11.20;6.20;;;23.90;99.90;;;;;;5079174;28;20029;-72
2022/08/05 08:15:13;;;;;;;14.63;6.75;;;24.10;99.90;;;;;;5081458;28;20077;-72
2022/08/05 08:17:39;;;;;;;16.83;6.88;;;24.10;99.90;;;;;;5077790;28;20060;-71
2022/08/05 08:20:05;;;;;;;12.68;6.38;;;24.20;99.90;;;;;;5085305;28;20016;-71
2022/08/05 08:22:32;;;;;;;11.32;6.85;;;24.30;99.90;;;;;;5078805;28;20021;-72
2022/08/05 08:24:58;;;;;;;12.63;7.00;;;24.30;99.90;;;;;;5079220;28;20097;-73
2022/08/05 08:27:24;;;;;;;12.43;7.60;;;24.30;99.90;;;;;;5088861;28;20028;-72
2022/08/05 08:29:50;;;;;;;18.33;7.05;;;24.40;99.90;;;;;;5090028;28;20020;-72
2022/08/05 08:32:15;;;;;;;14.52;7.22;;;24.30;99.90;;;;;;5093086;28;20016;-73
2022/08/05 08:34:41;;;;;;;13.45;6.40;;;24.30;99.90;;;;;;5088545;28;20024;-73
2022/08/05 08:37:07;;;;;;;13.30;6.85;;;24.40;99.90;;;;;;5091859;28;20484;-72
2022/08/05 08:39:33;;;;;;;19.45;5.93;;;24.50;99.90;;;;;;5091529;28;20106;-72
2022/08/05 08:42:01;;;;;;;10.85;5.47;;;24.50;99.90;;;;;;5085390;28;20032;-72
2022/08/05 08:44:32;;;;;;;16.75;6.75;;;24.50;99.90;;;;;;5074070;28;20027;-72
2022/08/05 08:46:58;;;;;;;11.45;6.25;;;24.50;99.90;;;;;;5091574;28;20024;-73
2022/08/05 08:49:26;;;;;;;13.73;6.05;;;24.30;99.90;;;;;;5084915;28;20013;-73
2022/08/05 08:52:05;;;;;;;11.32;5.95;;;24.10;99.90;;;;;;5076456;28;20035;-73
2022/08/05 08:54:31;;;;;;;18.70;6.45;;;24.10;99.90;;;;;;5081952;28;20123;-72
2022/08/05 08:56:59;;;;;;;15.60;6.68;;;24.00;99.90;;;;;;5097178;28;20400;-72
2022/08/05 08:59:25;;;;;;;14.63;6.35;;;23.90;99.90;;;;;;5078359;28;20024;-73
2022/08/05 09:01:51;;;;;;;11.23;5.50;;;23.90;99.90;;;;;;5088770;28;20504;-73
2022/08/05 09:04:17;;;;;;;11.80;5.43;;;24.00;99.90;;;;;;5084538;28;20103;-72
2022/08/05 09:06:43;;;;;;;18.65;6.28;;;24.00;99.90;;;;;;5096233;28;20076;-73
2022/08/05 09:09:09;;;;;;;16.23;6.35;;;23.90;99.90;;;;;;5075199;28;20111;-73
2022/08/05 09:11:36;;;;;;;14.88;5.85;;;24.00;99.90;;;;;;5069502;28;20481;-72
2022/08/05 09:14:02;;;;;;;9.98;5.05;;;23.90;99.90;;;;;;5080835;28;20043;-73
2022/08/05 09:16:28;;;;;;;12.15;5.38;;;23.90;99.90;;;;;;5092907;28;20490;-73
2022/08/05 09:18:54;;;;;;;10.07;5.60;;;24.00;99.90;;;;;;5083373;28;20029;-73
2022/08/05 09:21:23;;;;;;;10.07;5.13;;;24.00;99.90;;;;;;5077469;28;20501;-73
2022/08/05 09:24:03;;;;;;;16.10;7.00;;;23.90;99.90;;;;;;5081577;28;20493;-73
2022/08/05 09:26:29;;;;;;;11.13;5.47;;;23.90;99.90;;;;;;5094920;28;20031;-73
2022/08/05 09:29:03;;;;;;;13.07;5.90;;;23.90;99.90;;;;;;5078673;28;20020;-73
2022/08/05 09:31:29;;;;;;;11.13;6.15;;;24.00;99.90;;;;;;5096036;28;20052;-73
2022/08/05 09:34:01;;;;;;;13.15;5.55;;;24.10;99.90;;;;;;5078726;28;20389;-73
2022/08/05 09:36:48;;;;;;;11.02;5.90;;;24.10;99.90;;;;;;5088277;28;20028;-73
2022/08/05 09:39:16;;;;;;;16.33;5.50;;;24.20;99.90;;;;;;5095044;28;20553;-73
2022/08/05 09:41:55;;;;;;;14.60;5.70;;;24.20;99.90;;;;;;5083661;28;20051;-73
2022/08/05 09:44:40;;;;;;;10.48;5.93;;;24.40;99.90;;;;;;5094640;28;20073;-72
2022/08/05 09:47:11;;;;;;;14.20;5.53;;;24.50;99.90;;;;;;5086497;28;20050;-73
2022/08/05 09:49:45;;;;;;;10.25;5.32;;;24.90;99.90;;;;;;5085486;28;20008;-72
2022/08/05 09:52:20;;;;;;;10.88;5.63;;;25.20;99.90;;;;;;5094311;28;20024;-72
2022/08/05 09:54:58;;;;;;;13.57;5.95;;;25.40;99.90;;;;;;5082088;28;20036;-72
2022/08/05 09:57:45;;;;;;;11.18;5.32;;;25.40;99.90;;;;;;5094577;28;20046;-71
2022/08/05 10:00:16;;;;;;;9.43;5.05;;;25.90;99.90;;;;;;5094600;28;20384;-71
2022/08/05 10:02:47;;;;;;;12.55;5.47;;;26.30;99.90;;;;;;5093953;28;20039;-71
2022/08/05 10:05:19;;;;;;;9.77;5.25;;;26.20;99.90;;;;;;5096731;28;20055;-71
2022/08/05 10:07:53;;;;;;;10.52;5.18;;;26.40;99.90;;;;;;5092142;28;20028;-71
2022/08/05 10:10:32;;;;;;;15.27;5.32;;;26.40;99.90;;;;;;5084677;28;20016;-70
2022/08/05 10:13:01;;;;;;;14.73;5.00;;;26.40;99.90;;;;;;5092277;28;20083;-71
2022/08/05 10:15:39;;;;;;;9.02;5.00;;;26.80;99.90;;;;;;5094579;28;20053;-71
2022/08/05 10:18:07;;;;;;;13.02;5.63;;;27.10;99.90;;;;;;5094173;28;20472;-70
2022/08/05 10:20:37;;;;;;;15.15;6.60;;;27.30;99.90;;;;;;5094535;28;20087;-70
2022/08/05 10:23:03;;;;;;;13.70;5.43;;;27.50;99.90;;;;;;5094063;28;20059;-71
2022/08/05 10:25:29;;;;;;;15.27;5.30;;;27.60;99.90;;;;;;5093034;28;20787;-71
2022/08/05 10:27:57;;;;;;;10.77;4.38;;;28.00;99.90;;;;;;5093108;28;20020;-70
2022/08/05 10:30:23;;;;;;;14.48;4.68;;;28.10;99.90;;;;;;5090817;28;20028;-70
2022/08/05 10:32:49;;;;;;;14.02;4.70;;;28.10;99.90;;;;;;5094428;28;20016;-70
2022/08/05 10:35:15;;;;;;;13.75;3.97;;;28.00;99.90;;;;;;5092519;28;20020;-70
2022/08/05 10:37:42;;;;;;;10.20;3.70;;;27.80;99.90;;;;;;5092009;28;20022;-71
2022/08/05 10:40:32;;;;;;;12.57;4.57;;;27.60;99.90;;;;;;5092732;28;20072;-71
2022/08/05 10:43:07;;;;;;;6.93;2.97;;;27.70;99.90;;;;;;5091789;28;20092;-70
2022/08/05 10:45:34;;;;;;;9.10;3.00;;;28.00;99.90;;;;;;5083363;28;20277;-71
2022/08/05 10:48:32;;;;;;;8.73;3.22;;;28.20;99.90;;;;;;5091401;28;20052;-71
2022/08/05 10:51:01;;;;;;;5.95;2.30;;;28.30;99.90;;;;;;5083001;28;20112;-70
2022/08/05 10:53:43;;;;;;;5.25;2.63;;;28.30;99.90;;;;;;5093745;28;20138;-69
2022/08/05 10:56:18;;;;;;;6.18;2.33;;;28.20;99.90;;;;;;5094087;28;20664;-70
2022/08/05 10:58:57;;;;;;;7.10;1.73;;;28.20;99.90;;;;;;5098059;28;20381;-71
2022/08/05 11:01:38;;;;;;;3.53;1.80;;;28.50;99.90;;;;;;5087134;28;20032;-71
2022/08/05 11:04:10;;;;;;;5.82;1.88;;;28.80;99.90;;;;;;5095439;28;20056;-71
2022/08/05 11:06:56;;;;;;;7.07;1.50;;;29.10;99.90;;;;;;5100231;28;20484;-71
2022/08/05 11:09:24;;;;;;;3.88;1.77;;;29.10;99.80;;;;;;5081157;28;20025;-71
2022/08/05 11:11:51;;;;;;;4.93;2.28;;;28.90;99.90;;;;;;5080657;28;20108;-70
2022/08/05 11:14:26;;;;;;;5.55;1.90;;;28.90;99.90;;;;;;5086330;28;20559;-71
2022/08/05 11:17:24;;;;;;;4.63;1.60;;;28.90;99.80;;;;;;5096811;28;20111;-71
2022/08/05 11:19:52;;;;;;;5.63;1.83;;;28.90;99.70;;;;;;5092636;28;20024;-70
2022/08/05 11:22:46;;;;;;;4.25;1.80;;;29.00;98.90;;;;;;5088125;28;20048;-71
2022/08/05 11:25:42;;;;;;;5.28;1.77;;;29.00;99.30;;;;;;5086968;28;20515;-71
2022/08/05 11:28:11;;;;;;;6.97;2.28;;;29.20;99.30;;;;;;5095570;28;20035;-70
2022/08/05 11:31:01;;;;;;;5.93;1.40;;;29.30;99.40;;;;;;5080987;28;20017;-70
2022/08/05 11:33:37;;;;;;;6.38;1.85;;;29.80;98.30;;;;;;5084110;28;20024;-71
2022/08/05 11:36:08;;;;;;;5.43;1.70;;;29.90;97.30;;;;;;5097098;28;20017;-70
2022/08/05 11:38:43;;;;;;;6.15;1.90;;;29.60;97.30;;;;;;5095945;28;20113;-70
2022/08/05 11:41:24;;;;;;;5.70;1.67;;;29.50;97.60;;;;;;5089258;28;20028;-70
2022/08/05 11:44:11;;;;;;;5.53;2.15;;;29.50;97.60;;;;;;5097418;28;20020;-71
2022/08/05 11:46:47;;;;;;;5.72;1.95;;;29.40;97.60;;;;;;5083937;28;20039;-68
2022/08/05 11:49:14;;;;;;;5.78;1.52;;;29.40;97.70;;;;;;5091830;28;20051;-68
2022/08/05 11:51:43;;;;;;;10.80;1.67;;;29.50;97.60;;;;;;5095368;28;20024;-69
2022/08/05 11:54:14;;;;;;;9.65;2.33;;;29.60;97.30;;;;;;5086785;28;20051;-67
2022/08/05 11:56:45;;;;;;;8.27;1.92;;;29.40;97.30;;;;;;5081503;28;20035;-68
2022/08/05 11:59:20;;;;;;;6.88;1.38;;;29.30;97.30;;;;;;5090964;28;20020;-67
2022/08/05 12:02:04;;;;;;;7.82;2.20;;;29.10;97.20;;;;;;5090901;28;20031;-69
2022/08/05 12:04:50;;;;;;;6.03;2.67;;;29.00;97.50;;;;;;5077226;28;20021;-68
2022/08/05 12:07:17;;;;;;;7.78;2.17;;;29.10;97.50;;;;;;5080206;28;20094;-68
2022/08/05 12:09:47;;;;;;;6.35;1.83;;;29.10;97.40;;;;;;5080037;28;20028;-68
2022/08/05 12:12:23;;;;;;;10.75;2.13;;;29.20;97.20;;;;;;5080224;28;20024;-68
2022/08/05 12:14:49;;;;;;;6.85;1.85;;;29.40;97.00;;;;;;5091623;28;20031;-69
2022/08/05 12:17:16;;;;;;;6.35;2.08;;;29.40;96.80;;;;;;5089957;28;20029;-68
2022/08/05 12:19:53;;;;;;;7.97;2.90;;;29.50;96.70;;;;;;5086813;28;20511;-68
2022/08/05 12:22:21;;;;;;;9.30;2.17;;;29.60;96.60;;;;;;5089400;28;20032;-68
2022/08/05 12:24:50;;;;;;;8.32;1.90;;;29.60;96.40;;;;;;5091382;28;20115;-68
2022/08/05 12:27:21;;;;;;;9.95;2.45;;;29.90;96.90;;;;;;5091432;28;20024;-69
2022/08/05 12:30:05;;;;;;;9.15;2.22;;;30.10;96.20;;;;;;5082862;28;20031;-69
2022/08/05 12:32:33;;;;;;;9.93;2.10;;;30.40;95.30;;;;;;5086979;28;20393;-68
2022/08/05 12:35:01;;;;;;;4.90;1.85;;;30.10;94.80;;;;;;5094114;28;20020;-69
2022/08/05 12:37:28;;;;;;;5.03;1.92;;;29.90;95.10;;;;;;5097609;28;20020;-69
2022/08/05 12:39:56;;;;;;;6.07;2.00;;;29.80;94.80;;;;;;5095698;28;20047;-68
2022/08/05 12:42:22;;;;;;;6.20;2.08;;;29.70;95.20;;;;;;5088136;28;20024;-69
2022/08/05 12:44:48;;;;;;;4.00;1.73;;;29.80;95.60;;;;;;5080337;28;20436;-69
2022/08/05 12:47:30;;;;;;;6.88;1.85;;;30.10;94.90;;;;;;5083826;28;20024;-69
2022/08/05 12:49:56;;;;;;;12.98;2.00;;;30.50;94.80;;;;;;5078617;28;20144;-68
2022/08/05 12:52:22;;;;;;;4.80;1.83;;;30.40;93.90;;;;;;5078622;28;20048;-69
2022/08/05 12:54:49;;;;;;;4.65;1.92;;;30.40;93.90;;;;;;5093007;28;20139;-68
2022/08/05 12:57:16;;;;;;;7.65;1.83;;;30.40;93.80;;;;;;5084786;28;20024;-68